Ana Sayfa
METAR-TAF:

METAR-TAF

Havaalanları :

Sabiha Gökçen Havalimanı

Istanbul Sabiha Gökçen, Türkiye

Enlem: 40-53-55N, Boylam: 029-18-33E, yükseklik: 95 m

Güncel hava durumu gözlemi

Rapor saat 11:20 UTC de 28 dakika önce yapıldı.
Rüzgar güneybatıdan 7 kt, güney/güneybatı ve batı arasında değişken
Sıcaklık 21°C
Nem 40%
Basınç 1026 hPa
Görüş mesafesi 10 km veya daha fazla
1500 m altında bulut yok ve kümülonimbus yok

METAR: LTFJ 241120Z 23007KT 200V260 CAVOK 21/07 Q1026 NOSIG RMK RWY24 23005KT 190V280

Saat: 14:48 (11:48 UTC)

Tahmin

Rapor saat 10:40 UTC de 1 saat ve 8 dakika önce yapıldı.
Ayın 24'si saat 12 UTC'den ayın 25'si saat 12 UTC'ye kadar geçerli Tahmin
Rüzgar kuzey/kuzeydoğudan 9 kt
Görüş mesafesi 10 km veya daha fazla
1500 m altında bulut yok ve kümülonimbus yok

TAF: LTFJ 241040Z 2412/2512 03009KT CAVOK

4.000'den fazla havaalanı için hava durumu gözlemleri ve tahminleri (METAR ve TAF raporları).

Kullanılabilir istasyonlar harita üzerinde sarı ve kırmızı noktalarla gösterilir.

İstasyonun adını görmek için fareyi noktanın üzerinde gezdirin.

Sonrasında hava gözlem ve tahminlerini görmek için tıklayın.

Haritayı değiştirmek için: yaklaştırmak için siyah artı işaretli yeşil düğmeye ve uzaklaştırmak için de eksi işaretli düğmeye hızla tıklayın; bitişik haritalar için yeşil okları kullanın.


METAR-TAF: